FHY1KG LTAI-LTAU
Flight info
| Callsign | FHY1KG |
|---|---|
| Flight time | 0h 48m |
| Altitude | 25000 |
| Route | TEWHE1K/18L TEWHE UR55 MUT UA285 ERCIS |
| Aircraft | A320/M-SDE3FGHIRWY/LB1 |
Departure
| Time | 2026-05-05 18:17 |
|---|---|
| Airport | Antalya International Airport (LTAI) |
Arrival
| Time | 2026-05-05 19:05 |
|---|---|
| Airport | Kayseri Erkilet International Airport (LTAU) |
| Time | Latitude | Longitude | Altitude | Speed | Heading |
|---|---|---|---|---|---|
| 2026-05-05 17:49 | 36.88992 | 30.80145 | 176 ft | 0 kts | 97° |
| 2026-05-05 18:07 | 36.88994 | 30.80116 | 176 ft | 4 kts | 84° |
| 2026-05-05 18:07 | 36.88986 | 30.80086 | 176 ft | 4 kts | 42° |
| 2026-05-05 18:08 | 36.88974 | 30.80077 | 176 ft | 0 kts | 6° |
| 2026-05-05 18:10 | 36.89015 | 30.80083 | 176 ft | 10 kts | 6° |
| 2026-05-05 18:10 | 36.89082 | 30.80091 | 176 ft | 9 kts | 7° |
| 2026-05-05 18:10 | 36.89146 | 30.80107 | 176 ft | 8 kts | 37° |
| 2026-05-05 18:11 | 36.89151 | 30.80175 | 176 ft | 10 kts | 96° |
| 2026-05-05 18:11 | 36.89142 | 30.80276 | 176 ft | 12 kts | 97° |
| 2026-05-05 18:11 | 36.89132 | 30.80378 | 176 ft | 11 kts | 97° |
| 2026-05-05 18:11 | 36.89123 | 30.80486 | 176 ft | 13 kts | 96° |
| 2026-05-05 18:12 | 36.89120 | 30.80605 | 176 ft | 17 kts | 63° |
| 2026-05-05 18:12 | 36.89251 | 30.80642 | 176 ft | 23 kts | 8° |
| 2026-05-05 18:12 | 36.89391 | 30.80664 | 176 ft | 20 kts | 6° |
| 2026-05-05 18:12 | 36.89530 | 30.80683 | 176 ft | 24 kts | 6° |
| 2026-05-05 18:13 | 36.89698 | 30.80706 | 176 ft | 24 kts | 6° |
| 2026-05-05 18:13 | 36.89856 | 30.80728 | 176 ft | 22 kts | 6° |
| 2026-05-05 18:13 | 36.90034 | 30.80752 | 176 ft | 24 kts | 6° |
| 2026-05-05 18:13 | 36.90183 | 30.80772 | 176 ft | 20 kts | 7° |
| 2026-05-05 18:14 | 36.90325 | 30.80792 | 176 ft | 21 kts | 6° |
| 2026-05-05 18:14 | 36.90479 | 30.80814 | 176 ft | 22 kts | 6° |
| 2026-05-05 18:14 | 36.90625 | 30.80834 | 176 ft | 22 kts | 6° |
| 2026-05-05 18:14 | 36.90782 | 30.80856 | 175 ft | 20 kts | 6° |
| 2026-05-05 18:15 | 36.90914 | 30.80873 | 175 ft | 18 kts | 6° |
| 2026-05-05 18:15 | 36.91050 | 30.80890 | 175 ft | 21 kts | 6° |
| 2026-05-05 18:15 | 36.91138 | 30.80966 | 176 ft | 15 kts | 79° |
| 2026-05-05 18:15 | 36.91135 | 30.81017 | 176 ft | 0 kts | 96° |
| 2026-05-05 18:16 | 36.91127 | 30.81077 | 176 ft | 11 kts | 108° |
| 2026-05-05 18:16 | 36.91072 | 30.81129 | 177 ft | 10 kts | 171° |
| 2026-05-05 18:16 | 36.91001 | 30.81121 | 177 ft | 15 kts | 186° |
| 2026-05-05 18:17 | 36.90583 | 30.81063 | 176 ft | 109 kts | 186° |
| 2026-05-05 18:17 | 36.89558 | 30.80925 | 293 ft | 175 kts | 187° |
| 2026-05-05 18:17 | 36.88282 | 30.80797 | 1012 ft | 197 kts | 179° |
| 2026-05-05 18:17 | 36.86841 | 30.81008 | 1657 ft | 214 kts | 172° |
| 2026-05-05 18:18 | 36.85343 | 30.81274 | 2292 ft | 219 kts | 171° |
| 2026-05-05 18:18 | 36.83818 | 30.81549 | 2897 ft | 223 kts | 171° |
| 2026-05-05 18:18 | 36.82308 | 30.82154 | 3536 ft | 237 kts | 146° |
| 2026-05-05 18:18 | 36.81167 | 30.83682 | 4176 ft | 249 kts | 114° |
| 2026-05-05 18:19 | 36.80844 | 30.85823 | 4828 ft | 261 kts | 83° |
| 2026-05-05 18:19 | 36.81035 | 30.88107 | 5461 ft | 268 kts | 81° |
| 2026-05-05 18:19 | 36.81254 | 30.90431 | 6099 ft | 271 kts | 81° |
| 2026-05-05 18:19 | 36.81475 | 30.92779 | 6731 ft | 274 kts | 81° |
| 2026-05-05 18:20 | 36.81691 | 30.95129 | 7338 ft | 278 kts | 81° |
| 2026-05-05 18:20 | 36.81906 | 30.97545 | 7968 ft | 283 kts | 81° |
| 2026-05-05 18:20 | 36.82122 | 31.00011 | 8609 ft | 288 kts | 82° |
| 2026-05-05 18:20 | 36.82339 | 31.02513 | 9277 ft | 293 kts | 82° |
| 2026-05-05 18:21 | 36.82560 | 31.05061 | 9944 ft | 297 kts | 82° |
| 2026-05-05 18:21 | 36.82785 | 31.07670 | 10554 ft | 310 kts | 82° |
| 2026-05-05 18:21 | 36.83021 | 31.10400 | 11179 ft | 322 kts | 83° |
| 2026-05-05 18:21 | 36.83262 | 31.13232 | 11817 ft | 334 kts | 83° |
| 2026-05-05 18:22 | 36.83510 | 31.16162 | 12462 ft | 345 kts | 83° |
| 2026-05-05 18:22 | 36.83766 | 31.19182 | 13126 ft | 354 kts | 83° |
| 2026-05-05 18:22 | 36.84029 | 31.22274 | 13794 ft | 363 kts | 84° |
| 2026-05-05 18:22 | 36.84299 | 31.25439 | 14391 ft | 370 kts | 84° |
| 2026-05-05 18:23 | 36.84571 | 31.28664 | 14998 ft | 377 kts | 83° |
| 2026-05-05 18:23 | 36.84844 | 31.31945 | 15620 ft | 383 kts | 83° |
| 2026-05-05 18:23 | 36.85121 | 31.35278 | 16252 ft | 388 kts | 83° |
| 2026-05-05 18:23 | 36.85403 | 31.38653 | 16899 ft | 393 kts | 83° |
| 2026-05-05 18:24 | 36.85689 | 31.42070 | 17564 ft | 398 kts | 83° |
| 2026-05-05 18:24 | 36.85980 | 31.45528 | 18237 ft | 402 kts | 83° |
| 2026-05-05 18:24 | 36.86269 | 31.49016 | 18833 ft | 406 kts | 83° |
| 2026-05-05 18:24 | 36.86557 | 31.52537 | 19433 ft | 409 kts | 83° |
| 2026-05-05 18:25 | 36.86847 | 31.56088 | 20056 ft | 413 kts | 83° |
| 2026-05-05 18:25 | 36.87039 | 31.58446 | 20465 ft | 415 kts | 83° |
| 2026-05-05 18:25 | 36.87430 | 31.63264 | 21311 ft | 418 kts | 82° |
| 2026-05-05 18:25 | 36.87726 | 31.66891 | 21965 ft | 420 kts | 82° |
| 2026-05-05 18:26 | 36.88023 | 31.70534 | 22631 ft | 422 kts | 82° |
| 2026-05-05 18:26 | 36.88317 | 31.74188 | 23309 ft | 424 kts | 82° |
| 2026-05-05 18:26 | 36.88611 | 31.77851 | 23940 ft | 424 kts | 82° |
| 2026-05-05 18:26 | 36.88907 | 31.81521 | 24520 ft | 424 kts | 82° |
| 2026-05-05 18:27 | 36.89203 | 31.85210 | 24905 ft | 432 kts | 82° |
| 2026-05-05 18:27 | 36.89506 | 31.88993 | 25020 ft | 445 kts | 82° |
| 2026-05-05 18:27 | 36.89813 | 31.92893 | 25051 ft | 456 kts | 82° |
| 2026-05-05 18:27 | 36.90060 | 31.96857 | 25046 ft | 460 kts | 87° |
| 2026-05-05 18:28 | 36.89884 | 32.04881 | 25047 ft | 463 kts | 90° |
| 2026-05-05 18:28 | 36.89784 | 32.08902 | 25054 ft | 463 kts | 90° |
| 2026-05-05 18:28 | 36.89687 | 32.12929 | 25056 ft | 465 kts | 90° |
| 2026-05-05 18:29 | 36.89590 | 32.16970 | 25061 ft | 465 kts | 90° |
| 2026-05-05 18:29 | 36.89492 | 32.20946 | 25053 ft | 464 kts | 90° |
| 2026-05-05 18:29 | 36.89389 | 32.25030 | 25055 ft | 464 kts | 90° |
| 2026-05-05 18:29 | 36.89288 | 32.28998 | 25053 ft | 464 kts | 90° |
| 2026-05-05 18:30 | 36.89182 | 32.33026 | 25052 ft | 463 kts | 90° |
| 2026-05-05 18:30 | 36.89075 | 32.37043 | 25042 ft | 463 kts | 90° |
| 2026-05-05 18:30 | 36.88962 | 32.41067 | 25033 ft | 463 kts | 90° |
| 2026-05-05 18:30 | 36.88847 | 32.45092 | 25031 ft | 464 kts | 90° |
| 2026-05-05 18:31 | 36.88736 | 32.49120 | 25032 ft | 464 kts | 90° |
| 2026-05-05 18:31 | 36.88630 | 32.53157 | 25030 ft | 464 kts | 90° |
| 2026-05-05 18:31 | 36.88524 | 32.57183 | 25029 ft | 464 kts | 90° |
| 2026-05-05 18:31 | 36.88416 | 32.61214 | 25029 ft | 465 kts | 90° |
| 2026-05-05 18:32 | 36.88303 | 32.65252 | 25036 ft | 465 kts | 90° |
| 2026-05-05 18:32 | 36.88186 | 32.69286 | 25033 ft | 465 kts | 90° |
| 2026-05-05 18:32 | 36.88064 | 32.73330 | 25032 ft | 465 kts | 90° |
| 2026-05-05 18:32 | 36.87941 | 32.77370 | 25032 ft | 466 kts | 90° |
| 2026-05-05 18:33 | 36.87819 | 32.81419 | 25034 ft | 467 kts | 90° |
| 2026-05-05 18:33 | 36.87699 | 32.85526 | 25046 ft | 479 kts | 90° |
| 2026-05-05 18:33 | 36.87578 | 32.89680 | 25061 ft | 490 kts | 90° |
| 2026-05-05 18:33 | 36.87452 | 32.93977 | 25046 ft | 500 kts | 90° |
| 2026-05-05 18:34 | 36.87320 | 32.98338 | 25047 ft | 506 kts | 90° |
| 2026-05-05 18:34 | 36.87182 | 33.02755 | 25044 ft | 511 kts | 90° |
| 2026-05-05 18:34 | 36.87037 | 33.07210 | 25041 ft | 515 kts | 90° |
| 2026-05-05 18:34 | 36.86886 | 33.11685 | 25041 ft | 517 kts | 90° |
| 2026-05-05 18:35 | 36.86734 | 33.16181 | 25039 ft | 519 kts | 90° |
| 2026-05-05 18:35 | 36.86678 | 33.20688 | 25041 ft | 518 kts | 83° |
| 2026-05-05 18:35 | 36.87236 | 33.25103 | 25047 ft | 513 kts | 71° |
| 2026-05-05 18:35 | 36.88450 | 33.29264 | 25046 ft | 507 kts | 60° |
| 2026-05-05 18:36 | 36.90239 | 33.33024 | 25046 ft | 500 kts | 49° |
| 2026-05-05 18:36 | 36.92512 | 33.36266 | 25046 ft | 493 kts | 39° |
| 2026-05-05 18:36 | 36.95031 | 33.39154 | 25060 ft | 491 kts | 38° |
| 2026-05-05 18:36 | 36.97555 | 33.42042 | 25069 ft | 491 kts | 38° |
| 2026-05-05 18:37 | 37.00067 | 33.44928 | 25067 ft | 491 kts | 38° |
| 2026-05-05 18:37 | 37.02577 | 33.47816 | 25068 ft | 491 kts | 38° |
| 2026-05-05 18:37 | 37.05089 | 33.50708 | 25066 ft | 490 kts | 38° |
| 2026-05-05 18:37 | 37.07597 | 33.53597 | 25063 ft | 490 kts | 38° |
| 2026-05-05 18:38 | 37.10111 | 33.56489 | 25080 ft | 490 kts | 38° |
| 2026-05-05 18:38 | 37.12619 | 33.59376 | 25077 ft | 489 kts | 38° |
| 2026-05-05 18:38 | 37.15127 | 33.62269 | 25071 ft | 489 kts | 38° |
| 2026-05-05 18:38 | 37.17632 | 33.65164 | 25073 ft | 489 kts | 38° |
| 2026-05-05 18:39 | 37.20101 | 33.68020 | 25070 ft | 489 kts | 38° |
| 2026-05-05 18:39 | 37.22633 | 33.70952 | 25089 ft | 489 kts | 38° |
| 2026-05-05 18:39 | 37.25102 | 33.73814 | 25096 ft | 489 kts | 38° |
| 2026-05-05 18:39 | 37.27599 | 33.76707 | 25080 ft | 489 kts | 38° |
| 2026-05-05 18:40 | 37.30095 | 33.79601 | 25090 ft | 488 kts | 38° |
| 2026-05-05 18:40 | 37.32592 | 33.82497 | 25089 ft | 489 kts | 38° |
| 2026-05-05 18:40 | 37.35090 | 33.85398 | 25083 ft | 489 kts | 38° |
| 2026-05-05 18:40 | 37.37587 | 33.88304 | 25097 ft | 489 kts | 38° |
| 2026-05-05 18:41 | 37.40075 | 33.91207 | 25099 ft | 488 kts | 38° |
| 2026-05-05 18:41 | 37.42561 | 33.94109 | 25083 ft | 487 kts | 38° |
| 2026-05-05 18:41 | 37.45050 | 33.97015 | 25090 ft | 487 kts | 38° |
| 2026-05-05 18:41 | 37.47529 | 33.99911 | 25094 ft | 487 kts | 38° |
| 2026-05-05 18:42 | 37.50013 | 34.02822 | 25080 ft | 487 kts | 38° |
| 2026-05-05 18:42 | 37.52486 | 34.05731 | 25077 ft | 486 kts | 38° |
| 2026-05-05 18:42 | 37.54959 | 34.08641 | 25072 ft | 486 kts | 38° |
| 2026-05-05 18:42 | 37.57434 | 34.11549 | 25072 ft | 486 kts | 38° |
| 2026-05-05 18:43 | 37.59907 | 34.14454 | 25072 ft | 486 kts | 38° |
| 2026-05-05 18:43 | 37.62380 | 34.17363 | 25063 ft | 485 kts | 38° |
| 2026-05-05 18:43 | 37.64816 | 34.20230 | 25053 ft | 485 kts | 38° |
| 2026-05-05 18:43 | 37.67316 | 34.23172 | 25075 ft | 485 kts | 38° |
| 2026-05-05 18:44 | 37.69782 | 34.26079 | 25062 ft | 485 kts | 38° |
| 2026-05-05 18:44 | 37.72239 | 34.28978 | 25049 ft | 484 kts | 38° |
| 2026-05-05 18:44 | 37.74667 | 34.31848 | 25038 ft | 484 kts | 38° |
| 2026-05-05 18:44 | 37.77124 | 34.34758 | 25028 ft | 484 kts | 38° |
| 2026-05-05 18:45 | 37.79575 | 34.37664 | 25019 ft | 483 kts | 38° |
| 2026-05-05 18:45 | 37.82031 | 34.40576 | 25028 ft | 483 kts | 38° |
| 2026-05-05 18:45 | 37.84477 | 34.43481 | 25026 ft | 482 kts | 38° |
| 2026-05-05 18:45 | 37.86921 | 34.46383 | 25024 ft | 482 kts | 38° |
| 2026-05-05 18:46 | 37.89360 | 34.49286 | 25025 ft | 482 kts | 38° |
| 2026-05-05 18:46 | 37.91804 | 34.52201 | 25021 ft | 482 kts | 38° |
| 2026-05-05 18:46 | 37.94248 | 34.55119 | 25020 ft | 482 kts | 38° |
| 2026-05-05 18:46 | 37.96686 | 34.58029 | 25040 ft | 482 kts | 38° |
| 2026-05-05 18:47 | 37.99129 | 34.60939 | 25085 ft | 481 kts | 38° |
| 2026-05-05 18:47 | 38.01573 | 34.63845 | 25020 ft | 481 kts | 38° |
| 2026-05-05 18:47 | 38.04011 | 34.66749 | 24683 ft | 481 kts | 38° |
| 2026-05-05 18:47 | 38.06423 | 34.69627 | 24351 ft | 481 kts | 39° |
| 2026-05-05 18:48 | 38.08861 | 34.72540 | 24034 ft | 482 kts | 39° |
| 2026-05-05 18:48 | 38.11297 | 34.75455 | 23706 ft | 481 kts | 39° |
| 2026-05-05 18:48 | 38.13723 | 34.78361 | 23335 ft | 479 kts | 39° |
| 2026-05-05 18:48 | 38.15321 | 34.80278 | 23072 ft | 467 kts | 39° |
| 2026-05-05 18:49 | 38.17628 | 34.83060 | 22681 ft | 447 kts | 39° |
| 2026-05-05 18:49 | 38.19838 | 34.85733 | 22303 ft | 430 kts | 39° |
| 2026-05-05 18:49 | 38.21976 | 34.88314 | 21952 ft | 416 kts | 39° |
| 2026-05-05 18:49 | 38.24048 | 34.90809 | 21692 ft | 406 kts | 39° |
| 2026-05-05 18:50 | 38.26086 | 34.93287 | 21430 ft | 403 kts | 42° |
| 2026-05-05 18:50 | 38.27880 | 34.96032 | 21161 ft | 405 kts | 51° |
| 2026-05-05 18:50 | 38.29442 | 34.99022 | 20903 ft | 405 kts | 53° |
| 2026-05-05 18:50 | 38.30984 | 35.02007 | 20653 ft | 403 kts | 53° |
| 2026-05-05 18:51 | 38.32520 | 35.04982 | 20388 ft | 401 kts | 53° |
| 2026-05-05 18:51 | 38.34050 | 35.07947 | 20137 ft | 400 kts | 53° |
| 2026-05-05 18:51 | 38.35558 | 35.10874 | 19893 ft | 390 kts | 54° |
| 2026-05-05 18:51 | 38.37024 | 35.13727 | 19642 ft | 379 kts | 54° |
| 2026-05-05 18:52 | 38.38448 | 35.16501 | 19401 ft | 368 kts | 54° |
| 2026-05-05 18:52 | 38.39812 | 35.19159 | 19169 ft | 358 kts | 54° |
| 2026-05-05 18:52 | 38.41156 | 35.21783 | 18950 ft | 349 kts | 54° |
| 2026-05-05 18:52 | 38.42465 | 35.24338 | 18732 ft | 340 kts | 54° |
| 2026-05-05 18:53 | 38.43743 | 35.26824 | 18515 ft | 332 kts | 54° |
| 2026-05-05 18:53 | 38.44999 | 35.29266 | 18300 ft | 327 kts | 54° |
| 2026-05-05 18:53 | 38.46241 | 35.31682 | 18063 ft | 325 kts | 54° |
| 2026-05-05 18:53 | 38.47477 | 35.34094 | 17814 ft | 323 kts | 54° |
| 2026-05-05 18:54 | 38.48701 | 35.36491 | 17569 ft | 322 kts | 54° |
| 2026-05-05 18:54 | 38.49923 | 35.38890 | 17326 ft | 321 kts | 54° |
| 2026-05-05 18:54 | 38.51141 | 35.41274 | 17086 ft | 320 kts | 54° |
| 2026-05-05 18:54 | 38.52352 | 35.43639 | 16842 ft | 318 kts | 54° |
| 2026-05-05 18:55 | 38.53549 | 35.45980 | 16636 ft | 317 kts | 54° |
| 2026-05-05 18:55 | 38.54749 | 35.48336 | 16402 ft | 316 kts | 54° |
| 2026-05-05 18:55 | 38.55941 | 35.50683 | 16110 ft | 314 kts | 54° |
| 2026-05-05 18:55 | 38.57124 | 35.53016 | 15804 ft | 312 kts | 54° |
| 2026-05-05 18:56 | 38.58302 | 35.55340 | 15503 ft | 311 kts | 54° |
| 2026-05-05 18:56 | 38.59473 | 35.57648 | 15203 ft | 308 kts | 54° |
| 2026-05-05 18:56 | 38.60638 | 35.59939 | 14905 ft | 305 kts | 54° |
| 2026-05-05 18:56 | 38.61789 | 35.62207 | 14612 ft | 302 kts | 54° |
| 2026-05-05 18:57 | 38.62928 | 35.64458 | 14308 ft | 300 kts | 55° |
| 2026-05-05 18:57 | 38.64061 | 35.66693 | 13954 ft | 300 kts | 54° |
| 2026-05-05 18:57 | 38.65197 | 35.68930 | 13538 ft | 300 kts | 54° |
| 2026-05-05 18:57 | 38.66334 | 35.71176 | 13115 ft | 301 kts | 54° |
| 2026-05-05 18:58 | 38.67472 | 35.73431 | 12684 ft | 301 kts | 54° |
| 2026-05-05 18:58 | 38.68607 | 35.75681 | 12274 ft | 301 kts | 55° |
| 2026-05-05 18:58 | 38.69745 | 35.77940 | 11854 ft | 301 kts | 55° |
| 2026-05-05 18:58 | 38.70879 | 35.80192 | 11445 ft | 300 kts | 54° |
| 2026-05-05 18:59 | 38.72009 | 35.82431 | 11042 ft | 299 kts | 54° |
| 2026-05-05 18:59 | 38.73272 | 35.84517 | 10640 ft | 294 kts | 38° |
| 2026-05-05 18:59 | 38.75036 | 35.85733 | 10248 ft | 287 kts | 12° |
| 2026-05-05 18:59 | 38.76963 | 35.85831 | 9862 ft | 281 kts | 347° |
| 2026-05-05 19:00 | 38.78735 | 35.84856 | 9438 ft | 278 kts | 323° |
| 2026-05-05 19:00 | 38.80021 | 35.83030 | 9005 ft | 277 kts | 303° |
| 2026-05-05 19:00 | 38.81033 | 35.80936 | 8595 ft | 275 kts | 302° |
| 2026-05-05 19:00 | 38.81829 | 35.78683 | 7872 ft | 285 kts | 285° |
| 2026-05-05 19:01 | 38.81987 | 35.76149 | 7433 ft | 286 kts | 266° |
| 2026-05-05 19:01 | 38.81591 | 35.73659 | 7058 ft | 283 kts | 258° |
| 2026-05-05 19:01 | 38.81131 | 35.71230 | 6694 ft | 279 kts | 258° |
| 2026-05-05 19:01 | 38.80688 | 35.68878 | 6338 ft | 260 kts | 258° |
| 2026-05-05 19:02 | 38.80289 | 35.66762 | 5999 ft | 229 kts | 258° |
| 2026-05-05 19:02 | 38.79933 | 35.64868 | 5697 ft | 207 kts | 258° |
| 2026-05-05 19:02 | 38.79610 | 35.63149 | 5459 ft | 191 kts | 258° |
| 2026-05-05 19:02 | 38.79310 | 35.61557 | 5205 ft | 175 kts | 258° |
| 2026-05-05 19:03 | 38.79044 | 35.60150 | 4952 ft | 156 kts | 257° |
| 2026-05-05 19:03 | 38.78802 | 35.58863 | 4729 ft | 141 kts | 257° |
| 2026-05-05 19:03 | 38.78580 | 35.57687 | 4533 ft | 130 kts | 256° |
| 2026-05-05 19:03 | 38.78366 | 35.56555 | 4362 ft | 134 kts | 257° |
| 2026-05-05 19:04 | 38.78145 | 35.55386 | 4185 ft | 134 kts | 257° |
| 2026-05-05 19:04 | 38.77926 | 35.54228 | 3998 ft | 134 kts | 258° |
| 2026-05-05 19:04 | 38.77707 | 35.53073 | 3822 ft | 134 kts | 257° |
| 2026-05-05 19:04 | 38.77493 | 35.51919 | 3617 ft | 132 kts | 257° |
| 2026-05-05 19:05 | 38.77283 | 35.50793 | 3484 ft | 130 kts | 257° |
| 2026-05-05 19:05 | 38.77094 | 35.49801 | 3464 ft | 92 kts | 256° |
| 2026-05-05 19:05 | 38.76982 | 35.49214 | 3466 ft | 44 kts | 256° |
| 2026-05-05 19:05 | 38.76922 | 35.48906 | 3467 ft | 31 kts | 256° |
| 2026-05-05 19:06 | 38.76879 | 35.48686 | 3467 ft | 18 kts | 256° |
| 2026-05-05 19:06 | 38.76814 | 35.48625 | 3468 ft | 9 kts | 169° |
| 2026-05-05 19:06 | 38.76760 | 35.48641 | 3468 ft | 7 kts | 167° |
| 2026-05-05 19:06 | 38.76725 | 35.48619 | 3468 ft | 5 kts | 239° |
| 2026-05-05 19:07 | 38.76718 | 35.48588 | 3468 ft | 0 kts | 256° |
| 2026-05-05 19:07 | 38.76715 | 35.48572 | 3467 ft | 4 kts | 256° |
| 2026-05-05 19:07 | 38.76708 | 35.48534 | 3468 ft | 5 kts | 256° |
| 2026-05-05 19:07 | 38.76689 | 35.48502 | 3468 ft | 4 kts | 195° |
| 2026-05-05 19:08 | 38.76662 | 35.48508 | 3467 ft | 3 kts | 167° |
| 2026-05-05 19:08 | 38.76643 | 35.48514 | 3468 ft | 2 kts | 166° |
| 2026-05-05 19:08 | 38.76621 | 35.48521 | 3468 ft | 3 kts | 166° |
| 2026-05-05 19:08 | 38.76618 | 35.48521 | 3468 ft | 0 kts | 166° |
| 2026-05-05 19:09 | 38.76626 | 35.48522 | 3468 ft | 0 kts | 166° |